sensor_id;sensor_type;location;lat;lon;timestamp;P1;durP1;ratioP1;P2;durP2;ratioP2
74632;SDS011;63139;52.018;8.552;2024-02-28T00:01:04;37.38;;;17.38;;
74632;SDS011;63139;52.018;8.552;2024-02-28T00:03:32;45.05;;;19.55;;
74632;SDS011;63139;52.018;8.552;2024-02-28T00:06:01;41.55;;;18.63;;
74632;SDS011;63139;52.018;8.552;2024-02-28T00:08:30;42.00;;;18.92;;
74632;SDS011;63139;52.018;8.552;2024-02-28T00:10:58;41.72;;;19.60;;
74632;SDS011;63139;52.018;8.552;2024-02-28T00:13:26;36.50;;;17.52;;
74632;SDS011;63139;52.018;8.552;2024-02-28T00:15:54;41.97;;;17.67;;
74632;SDS011;63139;52.018;8.552;2024-02-28T00:18:22;34.65;;;16.45;;
74632;SDS011;63139;52.018;8.552;2024-02-28T00:20:53;40.05;;;17.15;;
74632;SDS011;63139;52.018;8.552;2024-02-28T00:23:22;35.80;;;16.60;;
74632;SDS011;63139;52.018;8.552;2024-02-28T00:25:51;43.33;;;19.05;;
74632;SDS011;63139;52.018;8.552;2024-02-28T00:28:19;38.58;;;16.95;;
74632;SDS011;63139;52.018;8.552;2024-02-28T00:30:48;37.83;;;16.65;;
74632;SDS011;63139;52.018;8.552;2024-02-28T00:33:16;33.38;;;14.50;;
74632;SDS011;63139;52.018;8.552;2024-02-28T00:35:44;41.45;;;18.63;;
74632;SDS011;63139;52.018;8.552;2024-02-28T00:38:12;35.25;;;16.48;;
74632;SDS011;63139;52.018;8.552;2024-02-28T00:40:40;36.20;;;16.98;;
74632;SDS011;63139;52.018;8.552;2024-02-28T00:43:09;34.22;;;15.20;;
74632;SDS011;63139;52.018;8.552;2024-02-28T00:45:37;47.00;;;18.83;;
74632;SDS011;63139;52.018;8.552;2024-02-28T00:48:05;41.47;;;17.80;;
74632;SDS011;63139;52.018;8.552;2024-02-28T00:50:34;33.58;;;15.90;;
74632;SDS011;63139;52.018;8.552;2024-02-28T00:53:02;32.30;;;15.07;;
74632;SDS011;63139;52.018;8.552;2024-02-28T00:55:30;34.10;;;15.88;;
74632;SDS011;63139;52.018;8.552;2024-02-28T00:57:58;33.40;;;15.68;;
74632;SDS011;63139;52.018;8.552;2024-02-28T01:00:27;34.28;;;15.75;;
74632;SDS011;63139;52.018;8.552;2024-02-28T01:02:55;31.27;;;14.13;;
74632;SDS011;63139;52.018;8.552;2024-02-28T01:05:24;37.20;;;15.85;;
74632;SDS011;63139;52.018;8.552;2024-02-28T01:07:52;33.47;;;16.17;;
74632;SDS011;63139;52.018;8.552;2024-02-28T01:10:20;33.28;;;16.15;;
74632;SDS011;63139;52.018;8.552;2024-02-28T01:12:48;37.08;;;15.18;;
74632;SDS011;63139;52.018;8.552;2024-02-28T01:15:16;31.40;;;13.85;;
74632;SDS011;63139;52.018;8.552;2024-02-28T01:17:46;34.92;;;15.52;;
74632;SDS011;63139;52.018;8.552;2024-02-28T01:20:14;40.92;;;18.67;;
74632;SDS011;63139;52.018;8.552;2024-02-28T01:22:42;37.17;;;17.13;;
74632;SDS011;63139;52.018;8.552;2024-02-28T01:25:11;39.80;;;17.30;;
74632;SDS011;63139;52.018;8.552;2024-02-28T01:27:39;39.85;;;16.63;;
74632;SDS011;63139;52.018;8.552;2024-02-28T01:30:07;36.75;;;17.17;;
74632;SDS011;63139;52.018;8.552;2024-02-28T01:32:35;40.13;;;16.90;;
74632;SDS011;63139;52.018;8.552;2024-02-28T01:35:05;40.72;;;18.40;;
74632;SDS011;63139;52.018;8.552;2024-02-28T01:37:35;39.15;;;15.52;;
74632;SDS011;63139;52.018;8.552;2024-02-28T01:40:04;40.80;;;17.88;;
74632;SDS011;63139;52.018;8.552;2024-02-28T01:42:32;34.83;;;16.63;;
74632;SDS011;63139;52.018;8.552;2024-02-28T01:45:00;33.42;;;15.60;;
74632;SDS011;63139;52.018;8.552;2024-02-28T01:47:28;34.55;;;15.93;;
74632;SDS011;63139;52.018;8.552;2024-02-28T01:49:57;38.95;;;16.75;;
74632;SDS011;63139;52.018;8.552;2024-02-28T01:52:26;38.38;;;16.55;;
74632;SDS011;63139;52.018;8.552;2024-02-28T01:54:54;38.78;;;15.90;;
74632;SDS011;63139;52.018;8.552;2024-02-28T01:57:23;33.60;;;16.25;;
74632;SDS011;63139;52.018;8.552;2024-02-28T01:59:50;36.22;;;17.23;;
74632;SDS011;63139;52.018;8.552;2024-02-28T02:02:21;35.50;;;16.02;;
74632;SDS011;63139;52.018;8.552;2024-02-28T02:04:49;38.42;;;15.57;;
74632;SDS011;63139;52.018;8.552;2024-02-28T02:07:19;34.33;;;15.65;;
74632;SDS011;63139;52.018;8.552;2024-02-28T02:09:48;33.70;;;15.30;;
74632;SDS011;63139;52.018;8.552;2024-02-28T02:12:16;33.72;;;14.38;;
74632;SDS011;63139;52.018;8.552;2024-02-28T02:14:46;37.60;;;15.98;;
74632;SDS011;63139;52.018;8.552;2024-02-28T02:17:17;34.90;;;15.48;;
74632;SDS011;63139;52.018;8.552;2024-02-28T02:19:44;40.72;;;16.20;;
74632;SDS011;63139;52.018;8.552;2024-02-28T02:22:13;38.53;;;17.30;;
74632;SDS011;63139;52.018;8.552;2024-02-28T02:24:43;35.15;;;15.80;;
74632;SDS011;63139;52.018;8.552;2024-02-28T02:27:11;40.08;;;16.98;;
74632;SDS011;63139;52.018;8.552;2024-02-28T02:29:39;38.60;;;16.90;;
74632;SDS011;63139;52.018;8.552;2024-02-28T02:32:07;40.60;;;16.48;;
74632;SDS011;63139;52.018;8.552;2024-02-28T02:34:35;36.28;;;15.65;;
74632;SDS011;63139;52.018;8.552;2024-02-28T02:37:03;33.05;;;15.05;;
74632;SDS011;63139;52.018;8.552;2024-02-28T02:39:31;37.20;;;15.90;;
74632;SDS011;63139;52.018;8.552;2024-02-28T02:42:00;29.60;;;13.38;;
74632;SDS011;63139;52.018;8.552;2024-02-28T02:44:28;39.65;;;16.38;;
74632;SDS011;63139;52.018;8.552;2024-02-28T02:46:57;26.23;;;12.93;;
74632;SDS011;63139;52.018;8.552;2024-02-28T02:49:25;28.25;;;13.30;;
74632;SDS011;63139;52.018;8.552;2024-02-28T02:51:52;34.13;;;14.98;;
74632;SDS011;63139;52.018;8.552;2024-02-28T02:54:20;36.83;;;15.35;;
74632;SDS011;63139;52.018;8.552;2024-02-28T02:56:48;31.85;;;14.73;;
74632;SDS011;63139;52.018;8.552;2024-02-28T02:59:17;37.85;;;16.95;;
74632;SDS011;63139;52.018;8.552;2024-02-28T03:01:48;38.80;;;15.88;;
74632;SDS011;63139;52.018;8.552;2024-02-28T03:04:17;30.70;;;14.73;;
74632;SDS011;63139;52.018;8.552;2024-02-28T03:06:45;36.38;;;15.93;;
74632;SDS011;63139;52.018;8.552;2024-02-28T03:09:13;38.75;;;16.20;;
74632;SDS011;63139;52.018;8.552;2024-02-28T03:11:41;42.35;;;16.77;;
74632;SDS011;63139;52.018;8.552;2024-02-28T03:14:09;44.78;;;17.80;;
74632;SDS011;63139;52.018;8.552;2024-02-28T03:16:41;46.42;;;19.60;;
74632;SDS011;63139;52.018;8.552;2024-02-28T03:19:09;38.45;;;17.20;;
74632;SDS011;63139;52.018;8.552;2024-02-28T03:21:38;41.85;;;17.40;;
74632;SDS011;63139;52.018;8.552;2024-02-28T03:24:06;37.75;;;16.85;;
74632;SDS011;63139;52.018;8.552;2024-02-28T03:26:34;39.05;;;16.58;;
74632;SDS011;63139;52.018;8.552;2024-02-28T03:29:02;40.90;;;16.30;;
74632;SDS011;63139;52.018;8.552;2024-02-28T03:31:30;40.50;;;16.40;;
74632;SDS011;63139;52.018;8.552;2024-02-28T03:33:59;38.40;;;16.00;;
74632;SDS011;63139;52.018;8.552;2024-02-28T03:36:28;37.45;;;15.48;;
74632;SDS011;63139;52.018;8.552;2024-02-28T03:38:56;40.60;;;16.73;;
74632;SDS011;63139;52.018;8.552;2024-02-28T03:41:24;40.83;;;16.80;;
74632;SDS011;63139;52.018;8.552;2024-02-28T03:43:52;39.33;;;16.20;;
74632;SDS011;63139;52.018;8.552;2024-02-28T03:46:20;46.30;;;18.63;;
74632;SDS011;63139;52.018;8.552;2024-02-28T03:48:48;36.17;;;15.85;;
74632;SDS011;63139;52.018;8.552;2024-02-28T03:51:18;41.50;;;16.23;;
74632;SDS011;63139;52.018;8.552;2024-02-28T03:53:46;44.50;;;17.67;;
74632;SDS011;63139;52.018;8.552;2024-02-28T03:56:21;36.17;;;15.48;;
74632;SDS011;63139;52.018;8.552;2024-02-28T03:58:51;47.63;;;19.55;;
74632;SDS011;63139;52.018;8.552;2024-02-28T04:01:20;47.03;;;19.48;;
74632;SDS011;63139;52.018;8.552;2024-02-28T04:03:48;42.97;;;17.45;;
74632;SDS011;63139;52.018;8.552;2024-02-28T04:06:17;44.60;;;18.35;;
74632;SDS011;63139;52.018;8.552;2024-02-28T04:08:45;42.55;;;18.27;;
74632;SDS011;63139;52.018;8.552;2024-02-28T04:11:13;49.30;;;20.15;;
74632;SDS011;63139;52.018;8.552;2024-02-28T04:13:41;47.08;;;18.10;;
74632;SDS011;63139;52.018;8.552;2024-02-28T04:16:09;55.75;;;20.67;;
74632;SDS011;63139;52.018;8.552;2024-02-28T04:18:37;62.35;;;22.60;;
74632;SDS011;63139;52.018;8.552;2024-02-28T04:21:05;61.33;;;22.63;;
74632;SDS011;63139;52.018;8.552;2024-02-28T04:23:34;73.65;;;25.15;;
74632;SDS011;63139;52.018;8.552;2024-02-28T04:26:04;58.25;;;22.95;;
74632;SDS011;63139;52.018;8.552;2024-02-28T04:28:32;57.13;;;21.55;;
74632;SDS011;63139;52.018;8.552;2024-02-28T04:31:00;58.55;;;21.52;;
74632;SDS011;63139;52.018;8.552;2024-02-28T04:33:28;69.45;;;24.65;;
74632;SDS011;63139;52.018;8.552;2024-02-28T04:35:56;62.05;;;23.20;;
74632;SDS011;63139;52.018;8.552;2024-02-28T04:38:24;56.10;;;21.45;;
74632;SDS011;63139;52.018;8.552;2024-02-28T04:40:53;55.45;;;21.20;;
74632;SDS011;63139;52.018;8.552;2024-02-28T04:43:21;63.22;;;23.98;;
74632;SDS011;63139;52.018;8.552;2024-02-28T04:45:49;60.00;;;23.75;;
74632;SDS011;63139;52.018;8.552;2024-02-28T04:48:17;61.65;;;23.02;;
74632;SDS011;63139;52.018;8.552;2024-02-28T04:50:45;62.67;;;22.75;;
74632;SDS011;63139;52.018;8.552;2024-02-28T04:53:13;57.90;;;21.00;;
74632;SDS011;63139;52.018;8.552;2024-02-28T04:55:40;65.32;;;23.17;;
74632;SDS011;63139;52.018;8.552;2024-02-28T04:58:10;72.25;;;25.00;;
74632;SDS011;63139;52.018;8.552;2024-02-28T05:00:37;68.97;;;24.75;;
74632;SDS011;63139;52.018;8.552;2024-02-28T05:03:06;68.03;;;24.10;;
74632;SDS011;63139;52.018;8.552;2024-02-28T05:05:34;62.55;;;22.45;;
74632;SDS011;63139;52.018;8.552;2024-02-28T05:08:02;70.20;;;24.65;;
74632;SDS011;63139;52.018;8.552;2024-02-28T05:10:30;71.40;;;24.20;;
74632;SDS011;63139;52.018;8.552;2024-02-28T05:13:00;65.38;;;22.35;;
74632;SDS011;63139;52.018;8.552;2024-02-28T05:15:31;63.45;;;21.70;;
74632;SDS011;63139;52.018;8.552;2024-02-28T05:18:00;65.95;;;23.30;;
74632;SDS011;63139;52.018;8.552;2024-02-28T05:20:27;69.75;;;24.00;;
74632;SDS011;63139;52.018;8.552;2024-02-28T05:22:55;75.07;;;25.80;;
74632;SDS011;63139;52.018;8.552;2024-02-28T05:25:23;74.25;;;24.42;;
74632;SDS011;63139;52.018;8.552;2024-02-28T05:27:51;76.68;;;25.10;;
74632;SDS011;63139;52.018;8.552;2024-02-28T05:30:19;70.03;;;25.30;;
74632;SDS011;63139;52.018;8.552;2024-02-28T05:32:49;71.50;;;24.70;;
74632;SDS011;63139;52.018;8.552;2024-02-28T05:35:17;71.00;;;24.30;;
74632;SDS011;63139;52.018;8.552;2024-02-28T05:37:44;66.72;;;22.60;;
74632;SDS011;63139;52.018;8.552;2024-02-28T05:40:13;73.60;;;24.75;;
74632;SDS011;63139;52.018;8.552;2024-02-28T05:42:40;64.20;;;23.85;;
74632;SDS011;63139;52.018;8.552;2024-02-28T05:45:09;70.95;;;24.15;;
74632;SDS011;63139;52.018;8.552;2024-02-28T05:47:39;64.22;;;22.17;;
74632;SDS011;63139;52.018;8.552;2024-02-28T05:50:09;61.00;;;22.50;;
74632;SDS011;63139;52.018;8.552;2024-02-28T05:52:37;67.38;;;25.38;;
74632;SDS011;63139;52.018;8.552;2024-02-28T05:55:05;65.20;;;22.13;;
74632;SDS011;63139;52.018;8.552;2024-02-28T05:57:34;74.75;;;24.10;;
74632;SDS011;63139;52.018;8.552;2024-02-28T06:00:01;59.38;;;22.58;;
74632;SDS011;63139;52.018;8.552;2024-02-28T06:02:39;70.32;;;24.67;;
74632;SDS011;63139;52.018;8.552;2024-02-28T06:05:09;68.70;;;23.23;;
74632;SDS011;63139;52.018;8.552;2024-02-28T06:07:37;78.43;;;25.90;;
74632;SDS011;63139;52.018;8.552;2024-02-28T06:10:05;79.07;;;25.13;;
74632;SDS011;63139;52.018;8.552;2024-02-28T06:12:34;79.35;;;23.65;;
74632;SDS011;63139;52.018;8.552;2024-02-28T06:15:02;81.10;;;25.17;;
74632;SDS011;63139;52.018;8.552;2024-02-28T06:17:33;77.10;;;23.42;;
74632;SDS011;63139;52.018;8.552;2024-02-28T06:20:01;67.63;;;22.42;;
74632;SDS011;63139;52.018;8.552;2024-02-28T06:22:31;72.38;;;22.05;;
74632;SDS011;63139;52.018;8.552;2024-02-28T06:24:59;69.55;;;22.88;;
74632;SDS011;63139;52.018;8.552;2024-02-28T06:27:27;68.55;;;22.33;;
74632;SDS011;63139;52.018;8.552;2024-02-28T06:29:55;70.72;;;21.45;;
74632;SDS011;63139;52.018;8.552;2024-02-28T06:32:23;74.57;;;24.40;;
74632;SDS011;63139;52.018;8.552;2024-02-28T06:34:51;82.00;;;24.55;;
74632;SDS011;63139;52.018;8.552;2024-02-28T06:37:19;75.65;;;23.60;;
74632;SDS011;63139;52.018;8.552;2024-02-28T06:39:49;80.78;;;22.33;;
74632;SDS011;63139;52.018;8.552;2024-02-28T06:42:16;63.42;;;22.05;;
74632;SDS011;63139;52.018;8.552;2024-02-28T06:44:45;67.38;;;22.55;;
74632;SDS011;63139;52.018;8.552;2024-02-28T06:47:12;62.05;;;21.17;;
74632;SDS011;63139;52.018;8.552;2024-02-28T06:49:41;62.25;;;20.25;;
74632;SDS011;63139;52.018;8.552;2024-02-28T06:52:09;54.42;;;18.33;;
74632;SDS011;63139;52.018;8.552;2024-02-28T06:54:37;53.10;;;19.15;;
74632;SDS011;63139;52.018;8.552;2024-02-28T06:57:06;67.95;;;21.40;;
74632;SDS011;63139;52.018;8.552;2024-02-28T06:59:34;57.00;;;20.63;;
74632;SDS011;63139;52.018;8.552;2024-02-28T07:02:02;53.08;;;19.88;;
74632;SDS011;63139;52.018;8.552;2024-02-28T07:04:31;49.63;;;18.75;;
74632;SDS011;63139;52.018;8.552;2024-02-28T07:06:59;55.20;;;19.75;;
74632;SDS011;63139;52.018;8.552;2024-02-28T07:09:27;49.88;;;18.90;;
74632;SDS011;63139;52.018;8.552;2024-02-28T07:11:57;53.20;;;18.50;;
74632;SDS011;63139;52.018;8.552;2024-02-28T07:14:26;53.42;;;19.08;;
74632;SDS011;63139;52.018;8.552;2024-02-28T07:16:54;52.83;;;19.83;;
74632;SDS011;63139;52.018;8.552;2024-02-28T07:19:22;53.78;;;20.60;;
74632;SDS011;63139;52.018;8.552;2024-02-28T07:21:50;52.33;;;20.50;;
74632;SDS011;63139;52.018;8.552;2024-02-28T07:24:18;49.25;;;19.05;;
74632;SDS011;63139;52.018;8.552;2024-02-28T07:26:46;54.47;;;20.80;;
74632;SDS011;63139;52.018;8.552;2024-02-28T07:29:15;43.30;;;17.25;;
74632;SDS011;63139;52.018;8.552;2024-02-28T07:31:45;50.95;;;18.08;;
74632;SDS011;63139;52.018;8.552;2024-02-28T07:34:13;44.65;;;18.60;;
74632;SDS011;63139;52.018;8.552;2024-02-28T07:36:41;44.00;;;18.88;;
74632;SDS011;63139;52.018;8.552;2024-02-28T07:39:10;44.65;;;17.98;;
74632;SDS011;63139;52.018;8.552;2024-02-28T07:41:39;40.22;;;17.17;;
74632;SDS011;63139;52.018;8.552;2024-02-28T07:44:08;43.38;;;17.83;;
74632;SDS011;63139;52.018;8.552;2024-02-28T07:46:37;52.58;;;20.15;;
74632;SDS011;63139;52.018;8.552;2024-02-28T07:49:06;44.13;;;17.92;;
74632;SDS011;63139;52.018;8.552;2024-02-28T07:51:34;43.38;;;17.38;;
74632;SDS011;63139;52.018;8.552;2024-02-28T07:54:02;42.53;;;17.83;;
74632;SDS011;63139;52.018;8.552;2024-02-28T07:56:30;45.75;;;18.25;;
74632;SDS011;63139;52.018;8.552;2024-02-28T07:58:58;51.55;;;18.08;;
74632;SDS011;63139;52.018;8.552;2024-02-28T08:01:26;45.50;;;17.60;;
74632;SDS011;63139;52.018;8.552;2024-02-28T08:03:54;43.78;;;18.55;;
74632;SDS011;63139;52.018;8.552;2024-02-28T08:06:23;54.00;;;19.77;;
74632;SDS011;63139;52.018;8.552;2024-02-28T08:08:52;46.55;;;18.65;;
74632;SDS011;63139;52.018;8.552;2024-02-28T08:11:19;40.60;;;17.33;;
74632;SDS011;63139;52.018;8.552;2024-02-28T08:13:47;44.60;;;18.63;;
74632;SDS011;63139;52.018;8.552;2024-02-28T08:16:15;46.53;;;18.80;;
74632;SDS011;63139;52.018;8.552;2024-02-28T08:18:43;46.60;;;19.00;;
74632;SDS011;63139;52.018;8.552;2024-02-28T08:21:11;46.92;;;18.58;;
74632;SDS011;63139;52.018;8.552;2024-02-28T08:23:40;46.35;;;19.27;;
74632;SDS011;63139;52.018;8.552;2024-02-28T08:26:08;45.03;;;17.98;;
74632;SDS011;63139;52.018;8.552;2024-02-28T08:28:37;42.35;;;17.65;;
74632;SDS011;63139;52.018;8.552;2024-02-28T08:31:05;49.20;;;19.85;;
74632;SDS011;63139;52.018;8.552;2024-02-28T08:33:33;50.17;;;21.00;;
74632;SDS011;63139;52.018;8.552;2024-02-28T08:36:01;49.47;;;20.00;;
74632;SDS011;63139;52.018;8.552;2024-02-28T08:38:29;43.17;;;18.27;;
74632;SDS011;63139;52.018;8.552;2024-02-28T08:40:59;49.42;;;20.52;;
74632;SDS011;63139;52.018;8.552;2024-02-28T08:43:27;45.72;;;19.65;;
74632;SDS011;63139;52.018;8.552;2024-02-28T08:45:55;48.55;;;20.42;;
74632;SDS011;63139;52.018;8.552;2024-02-28T08:48:23;45.42;;;19.23;;
74632;SDS011;63139;52.018;8.552;2024-02-28T08:50:51;48.65;;;20.75;;
74632;SDS011;63139;52.018;8.552;2024-02-28T08:53:19;44.30;;;19.35;;
74632;SDS011;63139;52.018;8.552;2024-02-28T08:55:47;46.80;;;19.08;;
74632;SDS011;63139;52.018;8.552;2024-02-28T08:58:17;41.47;;;18.85;;
74632;SDS011;63139;52.018;8.552;2024-02-28T09:00:45;45.78;;;19.40;;
74632;SDS011;63139;52.018;8.552;2024-02-28T09:03:13;45.78;;;18.77;;
74632;SDS011;63139;52.018;8.552;2024-02-28T09:05:41;50.00;;;20.38;;
74632;SDS011;63139;52.018;8.552;2024-02-28T09:08:09;44.08;;;18.17;;
74632;SDS011;63139;52.018;8.552;2024-02-28T09:10:40;47.90;;;19.98;;
74632;SDS011;63139;52.018;8.552;2024-02-28T09:13:08;41.63;;;18.77;;
74632;SDS011;63139;52.018;8.552;2024-02-28T09:15:40;38.45;;;17.58;;
74632;SDS011;63139;52.018;8.552;2024-02-28T09:18:08;41.13;;;17.50;;
74632;SDS011;63139;52.018;8.552;2024-02-28T09:20:36;50.85;;;22.08;;
74632;SDS011;63139;52.018;8.552;2024-02-28T09:23:04;53.13;;;20.13;;
74632;SDS011;63139;52.018;8.552;2024-02-28T09:25:33;46.13;;;19.02;;
74632;SDS011;63139;52.018;8.552;2024-02-28T09:28:02;48.28;;;20.17;;
74632;SDS011;63139;52.018;8.552;2024-02-28T09:30:30;48.08;;;19.77;;
74632;SDS011;63139;52.018;8.552;2024-02-28T09:33:12;51.88;;;20.08;;
74632;SDS011;63139;52.018;8.552;2024-02-28T09:35:41;52.35;;;20.55;;
74632;SDS011;63139;52.018;8.552;2024-02-28T09:38:09;47.90;;;20.02;;
74632;SDS011;63139;52.018;8.552;2024-02-28T09:40:37;52.10;;;21.55;;
74632;SDS011;63139;52.018;8.552;2024-02-28T09:43:06;53.78;;;20.73;;
74632;SDS011;63139;52.018;8.552;2024-02-28T09:45:43;50.88;;;20.65;;
74632;SDS011;63139;52.018;8.552;2024-02-28T09:48:16;52.08;;;20.67;;
74632;SDS011;63139;52.018;8.552;2024-02-28T09:50:44;53.72;;;21.70;;
74632;SDS011;63139;52.018;8.552;2024-02-28T09:53:13;50.65;;;20.90;;
74632;SDS011;63139;52.018;8.552;2024-02-28T09:55:41;59.50;;;22.80;;
74632;SDS011;63139;52.018;8.552;2024-02-28T09:58:10;54.83;;;22.77;;
74632;SDS011;63139;52.018;8.552;2024-02-28T10:00:38;55.15;;;21.77;;
74632;SDS011;63139;52.018;8.552;2024-02-28T10:03:10;59.55;;;24.42;;
74632;SDS011;63139;52.018;8.552;2024-02-28T10:05:42;54.13;;;22.38;;
74632;SDS011;63139;52.018;8.552;2024-02-28T10:08:10;59.50;;;23.98;;
74632;SDS011;63139;52.018;8.552;2024-02-28T10:10:44;51.97;;;20.92;;
74632;SDS011;63139;52.018;8.552;2024-02-28T10:13:13;53.22;;;21.23;;
74632;SDS011;63139;52.018;8.552;2024-02-28T10:15:43;66.90;;;24.98;;
74632;SDS011;63139;52.018;8.552;2024-02-28T10:18:11;62.05;;;24.50;;
74632;SDS011;63139;52.018;8.552;2024-02-28T10:20:39;63.85;;;22.58;;
74632;SDS011;63139;52.018;8.552;2024-02-28T10:23:08;56.60;;;22.92;;
74632;SDS011;63139;52.018;8.552;2024-02-28T10:25:41;74.90;;;25.70;;
74632;SDS011;63139;52.018;8.552;2024-02-28T10:28:21;58.95;;;23.63;;
74632;SDS011;63139;52.018;8.552;2024-02-28T10:30:49;54.95;;;21.80;;
74632;SDS011;63139;52.018;8.552;2024-02-28T10:33:18;56.08;;;21.42;;
74632;SDS011;63139;52.018;8.552;2024-02-28T10:35:46;59.30;;;22.27;;
74632;SDS011;63139;52.018;8.552;2024-02-28T10:38:21;58.50;;;22.80;;
74632;SDS011;63139;52.018;8.552;2024-02-28T10:40:50;57.67;;;22.15;;
74632;SDS011;63139;52.018;8.552;2024-02-28T10:43:20;51.25;;;21.30;;
74632;SDS011;63139;52.018;8.552;2024-02-28T10:45:48;63.05;;;23.48;;
74632;SDS011;63139;52.018;8.552;2024-02-28T10:48:38;57.95;;;23.77;;
74632;SDS011;63139;52.018;8.552;2024-02-28T10:51:07;61.72;;;23.65;;
74632;SDS011;63139;52.018;8.552;2024-02-28T10:53:40;53.08;;;22.20;;
74632;SDS011;63139;52.018;8.552;2024-02-28T10:56:10;57.75;;;22.83;;
74632;SDS011;63139;52.018;8.552;2024-02-28T10:58:41;57.90;;;24.35;;
74632;SDS011;63139;52.018;8.552;2024-02-28T11:01:17;62.67;;;25.23;;
74632;SDS011;63139;52.018;8.552;2024-02-28T11:03:47;57.30;;;23.20;;
74632;SDS011;63139;52.018;8.552;2024-02-28T11:06:17;59.42;;;23.90;;
74632;SDS011;63139;52.018;8.552;2024-02-28T11:08:48;56.97;;;22.63;;
74632;SDS011;63139;52.018;8.552;2024-02-28T11:11:21;68.60;;;25.25;;
74632;SDS011;63139;52.018;8.552;2024-02-28T11:13:53;71.60;;;25.92;;
74632;SDS011;63139;52.018;8.552;2024-02-28T11:16:28;61.95;;;24.38;;
74632;SDS011;63139;52.018;8.552;2024-02-28T11:18:57;58.38;;;23.08;;
74632;SDS011;63139;52.018;8.552;2024-02-28T11:21:25;66.40;;;26.15;;
74632;SDS011;63139;52.018;8.552;2024-02-28T11:23:58;69.25;;;25.42;;
74632;SDS011;63139;52.018;8.552;2024-02-28T11:26:27;65.72;;;25.35;;
74632;SDS011;63139;52.018;8.552;2024-02-28T11:28:55;66.13;;;25.00;;
74632;SDS011;63139;52.018;8.552;2024-02-28T11:31:23;64.68;;;23.83;;
74632;SDS011;63139;52.018;8.552;2024-02-28T11:33:51;62.08;;;24.73;;
74632;SDS011;63139;52.018;8.552;2024-02-28T11:36:19;64.32;;;24.90;;
74632;SDS011;63139;52.018;8.552;2024-02-28T11:38:47;61.63;;;25.10;;
74632;SDS011;63139;52.018;8.552;2024-02-28T11:41:26;76.10;;;30.00;;
74632;SDS011;63139;52.018;8.552;2024-02-28T11:43:55;63.90;;;25.85;;
74632;SDS011;63139;52.018;8.552;2024-02-28T11:46:23;66.00;;;25.70;;
74632;SDS011;63139;52.018;8.552;2024-02-28T11:48:51;65.03;;;23.83;;
74632;SDS011;63139;52.018;8.552;2024-02-28T11:51:20;56.08;;;21.98;;
74632;SDS011;63139;52.018;8.552;2024-02-28T11:53:48;71.93;;;25.92;;
74632;SDS011;63139;52.018;8.552;2024-02-28T11:56:16;60.65;;;23.80;;
74632;SDS011;63139;52.018;8.552;2024-02-28T11:58:52;66.32;;;26.10;;
74632;SDS011;63139;52.018;8.552;2024-02-28T12:01:31;63.60;;;23.92;;
74632;SDS011;63139;52.018;8.552;2024-02-28T12:04:06;59.78;;;24.63;;
74632;SDS011;63139;52.018;8.552;2024-02-28T12:06:35;63.08;;;24.10;;
74632;SDS011;63139;52.018;8.552;2024-02-28T12:09:05;61.47;;;24.00;;
74632;SDS011;63139;52.018;8.552;2024-02-28T12:11:35;64.25;;;24.63;;
74632;SDS011;63139;52.018;8.552;2024-02-28T12:14:05;73.07;;;26.45;;
74632;SDS011;63139;52.018;8.552;2024-02-28T12:16:36;65.35;;;25.38;;
74632;SDS011;63139;52.018;8.552;2024-02-28T12:19:06;63.22;;;23.77;;
74632;SDS011;63139;52.018;8.552;2024-02-28T12:21:36;59.38;;;22.75;;
74632;SDS011;63139;52.018;8.552;2024-02-28T12:24:04;51.53;;;21.85;;
74632;SDS011;63139;52.018;8.552;2024-02-28T12:26:35;53.65;;;20.83;;
74632;SDS011;63139;52.018;8.552;2024-02-28T12:29:03;49.15;;;20.75;;
74632;SDS011;63139;52.018;8.552;2024-02-28T12:31:33;56.92;;;22.33;;
74632;SDS011;63139;52.018;8.552;2024-02-28T12:34:02;60.00;;;23.60;;
74632;SDS011;63139;52.018;8.552;2024-02-28T12:36:31;55.80;;;23.17;;
74632;SDS011;63139;52.018;8.552;2024-02-28T12:39:00;59.05;;;23.95;;
74632;SDS011;63139;52.018;8.552;2024-02-28T12:41:28;55.88;;;23.45;;
74632;SDS011;63139;52.018;8.552;2024-02-28T12:43:56;54.53;;;22.13;;
74632;SDS011;63139;52.018;8.552;2024-02-28T12:46:26;60.53;;;24.30;;
74632;SDS011;63139;52.018;8.552;2024-02-28T12:48:54;72.32;;;26.73;;
74632;SDS011;63139;52.018;8.552;2024-02-28T12:51:35;58.78;;;24.58;;
74632;SDS011;63139;52.018;8.552;2024-02-28T12:54:05;62.72;;;23.30;;
74632;SDS011;63139;52.018;8.552;2024-02-28T12:56:34;61.17;;;25.17;;
74632;SDS011;63139;52.018;8.552;2024-02-28T12:59:02;59.55;;;24.40;;
74632;SDS011;63139;52.018;8.552;2024-02-28T13:01:32;54.88;;;21.88;;
74632;SDS011;63139;52.018;8.552;2024-02-28T13:04:01;55.05;;;23.05;;
74632;SDS011;63139;52.018;8.552;2024-02-28T13:06:29;53.67;;;24.38;;
74632;SDS011;63139;52.018;8.552;2024-02-28T13:08:57;57.92;;;24.42;;
74632;SDS011;63139;52.018;8.552;2024-02-28T13:11:25;54.20;;;23.50;;
74632;SDS011;63139;52.018;8.552;2024-02-28T13:13:53;50.72;;;22.98;;
74632;SDS011;63139;52.018;8.552;2024-02-28T13:16:21;51.38;;;23.35;;
74632;SDS011;63139;52.018;8.552;2024-02-28T13:18:51;52.13;;;23.20;;
74632;SDS011;63139;52.018;8.552;2024-02-28T13:21:19;52.55;;;23.45;;
74632;SDS011;63139;52.018;8.552;2024-02-28T13:23:47;53.53;;;23.67;;
74632;SDS011;63139;52.018;8.552;2024-02-28T13:26:16;56.10;;;23.92;;
74632;SDS011;63139;52.018;8.552;2024-02-28T13:28:45;55.75;;;24.17;;
74632;SDS011;63139;52.018;8.552;2024-02-28T13:31:17;48.72;;;22.00;;
74632;SDS011;63139;52.018;8.552;2024-02-28T13:33:46;51.47;;;23.30;;
74632;SDS011;63139;52.018;8.552;2024-02-28T13:36:17;46.28;;;21.33;;
74632;SDS011;63139;52.018;8.552;2024-02-28T13:38:45;49.42;;;22.27;;
74632;SDS011;63139;52.018;8.552;2024-02-28T13:41:13;48.35;;;21.13;;
74632;SDS011;63139;52.018;8.552;2024-02-28T13:43:43;50.22;;;22.23;;
74632;SDS011;63139;52.018;8.552;2024-02-28T13:46:10;42.90;;;20.52;;
74632;SDS011;63139;52.018;8.552;2024-02-28T13:48:41;43.25;;;20.80;;
74632;SDS011;63139;52.018;8.552;2024-02-28T13:51:09;49.08;;;22.15;;
74632;SDS011;63139;52.018;8.552;2024-02-28T13:53:39;45.08;;;22.02;;
74632;SDS011;63139;52.018;8.552;2024-02-28T13:56:07;47.38;;;22.33;;
74632;SDS011;63139;52.018;8.552;2024-02-28T13:58:35;47.83;;;21.77;;
74632;SDS011;63139;52.018;8.552;2024-02-28T14:01:14;43.28;;;20.60;;
74632;SDS011;63139;52.018;8.552;2024-02-28T14:03:42;46.65;;;22.48;;
74632;SDS011;63139;52.018;8.552;2024-02-28T14:06:10;43.70;;;21.17;;
74632;SDS011;63139;52.018;8.552;2024-02-28T14:08:40;45.70;;;21.67;;
74632;SDS011;63139;52.018;8.552;2024-02-28T14:11:09;42.28;;;21.40;;
74632;SDS011;63139;52.018;8.552;2024-02-28T14:13:37;47.88;;;22.10;;
74632;SDS011;63139;52.018;8.552;2024-02-28T14:16:06;45.15;;;21.17;;
74632;SDS011;63139;52.018;8.552;2024-02-28T14:18:35;49.22;;;22.33;;
74632;SDS011;63139;52.018;8.552;2024-02-28T14:21:03;48.50;;;22.63;;
74632;SDS011;63139;52.018;8.552;2024-02-28T14:23:33;42.13;;;20.10;;
74632;SDS011;63139;52.018;8.552;2024-02-28T14:26:03;47.55;;;22.23;;
74632;SDS011;63139;52.018;8.552;2024-02-28T14:28:31;44.13;;;21.05;;
74632;SDS011;63139;52.018;8.552;2024-02-28T14:30:59;45.40;;;22.70;;